sensor_id;sensor_type;location;lat;lon;timestamp;P1;durP1;ratioP1;P2;durP2;ratioP2
16800;SDS011;8518;53.236;10.384;2023-04-09T00:00:40;24.03;;;15.73;;
16800;SDS011;8518;53.236;10.384;2023-04-09T00:06:28;24.00;;;15.50;;
16800;SDS011;8518;53.236;10.384;2023-04-09T00:08:55;21.20;;;14.83;;
16800;SDS011;8518;53.236;10.384;2023-04-09T00:11:20;26.07;;;15.87;;
16800;SDS011;8518;53.236;10.384;2023-04-09T00:17:08;22.70;;;15.73;;
16800;SDS011;8518;53.236;10.384;2023-04-09T00:22:55;25.20;;;16.13;;
16800;SDS011;8518;53.236;10.384;2023-04-09T00:25:22;25.00;;;15.73;;
16800;SDS011;8518;53.236;10.384;2023-04-09T00:27:48;25.40;;;15.37;;
16800;SDS011;8518;53.236;10.384;2023-04-09T00:30:14;22.77;;;14.53;;
16800;SDS011;8518;53.236;10.384;2023-04-09T00:36:02;21.97;;;13.93;;
16800;SDS011;8518;53.236;10.384;2023-04-09T00:41:54;25.53;;;13.53;;
16800;SDS011;8518;53.236;10.384;2023-04-09T00:44:23;21.40;;;14.20;;
16800;SDS011;8518;53.236;10.384;2023-04-09T00:46:50;22.03;;;14.67;;
16800;SDS011;8518;53.236;10.384;2023-04-09T00:49:16;22.17;;;14.20;;
16800;SDS011;8518;53.236;10.384;2023-04-09T00:51:51;21.30;;;13.97;;
16800;SDS011;8518;53.236;10.384;2023-04-09T00:58:23;21.57;;;14.03;;
16800;SDS011;8518;53.236;10.384;2023-04-09T01:00:49;21.70;;;13.37;;
16800;SDS011;8518;53.236;10.384;2023-04-09T01:15:54;20.53;;;13.83;;
16800;SDS011;8518;53.236;10.384;2023-04-09T01:18:57;20.67;;;14.37;;
16800;SDS011;8518;53.236;10.384;2023-04-09T01:21:22;20.10;;;13.53;;
16800;SDS011;8518;53.236;10.384;2023-04-09T01:27:13;21.73;;;14.07;;
16800;SDS011;8518;53.236;10.384;2023-04-09T01:29:40;22.30;;;14.47;;
16800;SDS011;8518;53.236;10.384;2023-04-09T01:32:11;21.27;;;13.87;;
16800;SDS011;8518;53.236;10.384;2023-04-09T01:34:40;20.80;;;13.10;;
16800;SDS011;8518;53.236;10.384;2023-04-09T01:37:06;19.87;;;13.50;;
16800;SDS011;8518;53.236;10.384;2023-04-09T01:39:33;21.93;;;13.63;;
16800;SDS011;8518;53.236;10.384;2023-04-09T01:42:00;19.73;;;14.13;;
16800;SDS011;8518;53.236;10.384;2023-04-09T01:44:27;19.37;;;13.83;;
16800;SDS011;8518;53.236;10.384;2023-04-09T01:46:54;21.37;;;13.57;;
16800;SDS011;8518;53.236;10.384;2023-04-09T01:49:22;20.63;;;14.10;;
16800;SDS011;8518;53.236;10.384;2023-04-09T01:51:47;21.90;;;14.63;;
16800;SDS011;8518;53.236;10.384;2023-04-09T01:57:36;21.33;;;14.70;;
16800;SDS011;8518;53.236;10.384;2023-04-09T02:00:01;22.47;;;14.13;;
16800;SDS011;8518;53.236;10.384;2023-04-09T02:06:02;21.53;;;15.47;;
16800;SDS011;8518;53.236;10.384;2023-04-09T02:08:30;21.83;;;15.53;;
16800;SDS011;8518;53.236;10.384;2023-04-09T02:10:58;26.97;;;16.93;;
16800;SDS011;8518;53.236;10.384;2023-04-09T02:16:49;28.93;;;19.37;;
16800;SDS011;8518;53.236;10.384;2023-04-09T02:19:16;30.67;;;19.67;;
16800;SDS011;8518;53.236;10.384;2023-04-09T02:21:42;33.23;;;20.50;;
16800;SDS011;8518;53.236;10.384;2023-04-09T02:27:30;33.40;;;22.13;;
16800;SDS011;8518;53.236;10.384;2023-04-09T02:29:55;34.57;;;21.77;;
16800;SDS011;8518;53.236;10.384;2023-04-09T02:32:21;36.77;;;21.93;;
16800;SDS011;8518;53.236;10.384;2023-04-09T02:34:47;35.07;;;21.30;;
16800;SDS011;8518;53.236;10.384;2023-04-09T02:37:12;37.37;;;22.97;;
16800;SDS011;8518;53.236;10.384;2023-04-09T02:39:38;39.17;;;23.50;;
16800;SDS011;8518;53.236;10.384;2023-04-09T02:42:03;40.10;;;25.10;;
16800;SDS011;8518;53.236;10.384;2023-04-09T02:44:31;40.40;;;24.43;;
16800;SDS011;8518;53.236;10.384;2023-04-09T02:46:57;39.50;;;23.37;;
16800;SDS011;8518;53.236;10.384;2023-04-09T02:49:22;43.47;;;25.63;;
16800;SDS011;8518;53.236;10.384;2023-04-09T02:51:48;41.03;;;24.87;;
16800;SDS011;8518;53.236;10.384;2023-04-09T02:57:36;39.83;;;24.70;;
16800;SDS011;8518;53.236;10.384;2023-04-09T03:00:01;42.43;;;25.93;;
16800;SDS011;8518;53.236;10.384;2023-04-09T03:05:49;46.90;;;26.47;;
16800;SDS011;8518;53.236;10.384;2023-04-09T03:08:15;46.33;;;27.57;;
16800;SDS011;8518;53.236;10.384;2023-04-09T03:10:40;43.20;;;25.43;;
16800;SDS011;8518;53.236;10.384;2023-04-09T03:16:28;40.60;;;25.20;;
16800;SDS011;8518;53.236;10.384;2023-04-09T03:18:53;47.50;;;25.47;;
16800;SDS011;8518;53.236;10.384;2023-04-09T03:21:19;43.77;;;25.67;;
16800;SDS011;8518;53.236;10.384;2023-04-09T03:27:07;44.03;;;25.20;;
16800;SDS011;8518;53.236;10.384;2023-04-09T03:29:32;45.63;;;26.00;;
16800;SDS011;8518;53.236;10.384;2023-04-09T03:31:58;43.60;;;25.50;;
16800;SDS011;8518;53.236;10.384;2023-04-09T03:34:24;41.70;;;25.80;;
16800;SDS011;8518;53.236;10.384;2023-04-09T03:36:49;45.37;;;26.77;;
16800;SDS011;8518;53.236;10.384;2023-04-09T03:39:15;46.53;;;26.33;;
16800;SDS011;8518;53.236;10.384;2023-04-09T03:41:40;41.30;;;23.80;;
16800;SDS011;8518;53.236;10.384;2023-04-09T03:47:28;44.37;;;25.87;;
16800;SDS011;8518;53.236;10.384;2023-04-09T03:49:54;43.47;;;26.13;;
16800;SDS011;8518;53.236;10.384;2023-04-09T03:52:21;45.13;;;26.50;;
16800;SDS011;8518;53.236;10.384;2023-04-09T03:54:46;46.63;;;27.37;;
16800;SDS011;8518;53.236;10.384;2023-04-09T03:57:12;45.23;;;25.77;;
16800;SDS011;8518;53.236;10.384;2023-04-09T03:59:38;45.23;;;25.73;;
16800;SDS011;8518;53.236;10.384;2023-04-09T04:02:03;49.47;;;28.23;;
16800;SDS011;8518;53.236;10.384;2023-04-09T04:04:29;51.20;;;28.77;;
16800;SDS011;8518;53.236;10.384;2023-04-09T04:06:55;53.67;;;29.53;;
16800;SDS011;8518;53.236;10.384;2023-04-09T04:09:20;52.00;;;28.73;;
16800;SDS011;8518;53.236;10.384;2023-04-09T04:11:46;56.97;;;30.20;;
16800;SDS011;8518;53.236;10.384;2023-04-09T04:17:35;51.63;;;30.37;;
16800;SDS011;8518;53.236;10.384;2023-04-09T04:20:01;56.37;;;31.03;;
16800;SDS011;8518;53.236;10.384;2023-04-09T04:22:26;56.03;;;29.73;;
16800;SDS011;8518;53.236;10.384;2023-04-09T04:24:52;59.87;;;29.67;;
16800;SDS011;8518;53.236;10.384;2023-04-09T04:27:17;53.70;;;28.40;;
16800;SDS011;8518;53.236;10.384;2023-04-09T04:29:43;49.33;;;29.00;;
16800;SDS011;8518;53.236;10.384;2023-04-09T04:32:08;51.30;;;29.17;;
16800;SDS011;8518;53.236;10.384;2023-04-09T04:34:34;48.97;;;27.77;;
16800;SDS011;8518;53.236;10.384;2023-04-09T04:37:00;50.00;;;28.10;;
16800;SDS011;8518;53.236;10.384;2023-04-09T04:39:25;51.37;;;29.40;;
16800;SDS011;8518;53.236;10.384;2023-04-09T04:41:51;48.90;;;27.67;;
16800;SDS011;8518;53.236;10.384;2023-04-09T04:47:38;47.83;;;26.10;;
16800;SDS011;8518;53.236;10.384;2023-04-09T04:50:04;46.07;;;26.37;;
16800;SDS011;8518;53.236;10.384;2023-04-09T04:55:53;43.73;;;25.73;;
16800;SDS011;8518;53.236;10.384;2023-04-09T04:58:19;44.10;;;25.70;;
16800;SDS011;8518;53.236;10.384;2023-04-09T05:00:45;44.27;;;26.90;;
16800;SDS011;8518;53.236;10.384;2023-04-09T05:06:33;49.80;;;28.00;;
16800;SDS011;8518;53.236;10.384;2023-04-09T05:12:20;45.50;;;26.47;;
16800;SDS011;8518;53.236;10.384;2023-04-09T05:14:46;45.20;;;26.93;;
16800;SDS011;8518;53.236;10.384;2023-04-09T05:17:11;48.47;;;28.40;;
16800;SDS011;8518;53.236;10.384;2023-04-09T05:19:37;42.93;;;26.47;;
16800;SDS011;8518;53.236;10.384;2023-04-09T05:22:04;46.03;;;27.30;;
16800;SDS011;8518;53.236;10.384;2023-04-09T05:24:30;45.10;;;26.83;;
16800;SDS011;8518;53.236;10.384;2023-04-09T05:26:55;48.10;;;27.33;;
16800;SDS011;8518;53.236;10.384;2023-04-09T05:29:21;45.73;;;26.10;;
16800;SDS011;8518;53.236;10.384;2023-04-09T05:31:47;49.47;;;27.23;;
16800;SDS011;8518;53.236;10.384;2023-04-09T05:37:34;43.10;;;25.60;;
16800;SDS011;8518;53.236;10.384;2023-04-09T05:40:00;41.97;;;26.57;;
16800;SDS011;8518;53.236;10.384;2023-04-09T05:42:25;39.63;;;23.63;;
16800;SDS011;8518;53.236;10.384;2023-04-09T05:44:51;39.57;;;24.30;;
16800;SDS011;8518;53.236;10.384;2023-04-09T05:47:16;42.37;;;25.67;;
16800;SDS011;8518;53.236;10.384;2023-04-09T05:49:42;39.67;;;25.40;;
16800;SDS011;8518;53.236;10.384;2023-04-09T05:52:08;44.87;;;26.27;;
16800;SDS011;8518;53.236;10.384;2023-04-09T05:54:33;41.07;;;25.17;;
16800;SDS011;8518;53.236;10.384;2023-04-09T05:56:59;41.77;;;25.80;;
16800;SDS011;8518;53.236;10.384;2023-04-09T05:59:25;41.07;;;25.37;;
16800;SDS011;8518;53.236;10.384;2023-04-09T06:01:50;39.70;;;23.80;;
16800;SDS011;8518;53.236;10.384;2023-04-09T06:07:38;39.73;;;24.60;;
16800;SDS011;8518;53.236;10.384;2023-04-09T06:10:05;41.63;;;26.47;;
16800;SDS011;8518;53.236;10.384;2023-04-09T06:15:53;41.43;;;25.43;;
16800;SDS011;8518;53.236;10.384;2023-04-09T06:18:19;44.67;;;25.33;;
16800;SDS011;8518;53.236;10.384;2023-04-09T06:20:44;44.90;;;27.00;;
16800;SDS011;8518;53.236;10.384;2023-04-09T06:26:33;42.63;;;25.60;;
16800;SDS011;8518;53.236;10.384;2023-04-09T06:28:58;40.03;;;24.47;;
16800;SDS011;8518;53.236;10.384;2023-04-09T06:31:24;42.43;;;24.70;;
16800;SDS011;8518;53.236;10.384;2023-04-09T06:37:11;41.80;;;25.10;;
16800;SDS011;8518;53.236;10.384;2023-04-09T06:39:37;38.17;;;24.33;;
16800;SDS011;8518;53.236;10.384;2023-04-09T06:42:03;40.10;;;25.07;;
16800;SDS011;8518;53.236;10.384;2023-04-09T06:44:29;41.73;;;24.63;;
16800;SDS011;8518;53.236;10.384;2023-04-09T06:46:55;38.20;;;23.13;;
16800;SDS011;8518;53.236;10.384;2023-04-09T06:49:20;40.67;;;24.40;;
16800;SDS011;8518;53.236;10.384;2023-04-09T06:51:46;35.60;;;23.90;;
16800;SDS011;8518;53.236;10.384;2023-04-09T06:57:34;37.97;;;23.40;;
16800;SDS011;8518;53.236;10.384;2023-04-09T06:59:59;36.03;;;22.90;;
16800;SDS011;8518;53.236;10.384;2023-04-09T07:02:25;37.27;;;24.03;;
16800;SDS011;8518;53.236;10.384;2023-04-09T07:04:51;38.27;;;23.90;;
16800;SDS011;8518;53.236;10.384;2023-04-09T07:07:17;36.37;;;23.17;;
16800;SDS011;8518;53.236;10.384;2023-04-09T07:09:43;40.03;;;25.70;;
16800;SDS011;8518;53.236;10.384;2023-04-09T07:12:08;39.47;;;24.83;;
16800;SDS011;8518;53.236;10.384;2023-04-09T07:14:34;40.67;;;24.27;;
16800;SDS011;8518;53.236;10.384;2023-04-09T07:17:00;37.63;;;24.37;;
16800;SDS011;8518;53.236;10.384;2023-04-09T07:19:26;36.83;;;24.63;;
16800;SDS011;8518;53.236;10.384;2023-04-09T07:21:51;35.13;;;24.30;;
16800;SDS011;8518;53.236;10.384;2023-04-09T07:27:39;37.87;;;23.37;;
16800;SDS011;8518;53.236;10.384;2023-04-09T07:30:05;35.03;;;22.33;;
16800;SDS011;8518;53.236;10.384;2023-04-09T07:35:57;33.53;;;22.07;;
16800;SDS011;8518;53.236;10.384;2023-04-09T07:38:22;29.77;;;21.47;;
16800;SDS011;8518;53.236;10.384;2023-04-09T07:40:48;32.50;;;22.73;;
16800;SDS011;8518;53.236;10.384;2023-04-09T07:46:36;30.30;;;21.73;;
16800;SDS011;8518;53.236;10.384;2023-04-09T07:49:01;30.83;;;22.00;;
16800;SDS011;8518;53.236;10.384;2023-04-09T07:51:27;33.00;;;22.00;;
16800;SDS011;8518;53.236;10.384;2023-04-09T07:57:14;31.43;;;21.63;;
16800;SDS011;8518;53.236;10.384;2023-04-09T07:59:40;31.77;;;21.57;;
16800;SDS011;8518;53.236;10.384;2023-04-09T08:02:06;30.23;;;20.87;;
16800;SDS011;8518;53.236;10.384;2023-04-09T08:04:32;27.90;;;20.67;;
16800;SDS011;8518;53.236;10.384;2023-04-09T08:06:59;28.23;;;20.70;;
16800;SDS011;8518;53.236;10.384;2023-04-09T08:09:25;26.67;;;19.47;;
16800;SDS011;8518;53.236;10.384;2023-04-09T08:11:51;27.63;;;19.60;;
16800;SDS011;8518;53.236;10.384;2023-04-09T08:17:39;26.47;;;19.17;;
16800;SDS011;8518;53.236;10.384;2023-04-09T08:20:05;23.97;;;18.27;;
16800;SDS011;8518;53.236;10.384;2023-04-09T08:25:55;24.03;;;17.90;;
16800;SDS011;8518;53.236;10.384;2023-04-09T08:28:20;23.47;;;17.73;;
16800;SDS011;8518;53.236;10.384;2023-04-09T08:30:46;24.10;;;17.83;;
16800;SDS011;8518;53.236;10.384;2023-04-09T08:36:34;25.23;;;17.57;;
16800;SDS011;8518;53.236;10.384;2023-04-09T08:39:00;23.23;;;18.00;;
16800;SDS011;8518;53.236;10.384;2023-04-09T08:41:27;21.07;;;17.13;;
16800;SDS011;8518;53.236;10.384;2023-04-09T08:47:15;21.70;;;16.57;;
16800;SDS011;8518;53.236;10.384;2023-04-09T08:49:41;23.90;;;17.73;;
16800;SDS011;8518;53.236;10.384;2023-04-09T08:52:06;24.17;;;17.80;;
16800;SDS011;8518;53.236;10.384;2023-04-09T08:54:32;23.37;;;17.27;;
16800;SDS011;8518;53.236;10.384;2023-04-09T08:56:58;24.40;;;17.87;;
16800;SDS011;8518;53.236;10.384;2023-04-09T08:59:23;22.27;;;16.83;;
16800;SDS011;8518;53.236;10.384;2023-04-09T09:02:04;23.63;;;17.87;;
16800;SDS011;8518;53.236;10.384;2023-04-09T09:04:44;21.40;;;15.53;;
16800;SDS011;8518;53.236;10.384;2023-04-09T09:07:11;23.17;;;17.40;;
16800;SDS011;8518;53.236;10.384;2023-04-09T09:09:49;23.30;;;16.77;;
16800;SDS011;8518;53.236;10.384;2023-04-09T09:15:40;19.70;;;16.07;;
16800;SDS011;8518;53.236;10.384;2023-04-09T09:18:06;20.60;;;16.03;;
16800;SDS011;8518;53.236;10.384;2023-04-09T09:20:32;19.87;;;15.70;;
16800;SDS011;8518;53.236;10.384;2023-04-09T09:26:20;22.83;;;16.50;;
16800;SDS011;8518;53.236;10.384;2023-04-09T09:28:48;20.07;;;15.20;;
16800;SDS011;8518;53.236;10.384;2023-04-09T09:31:15;21.53;;;15.97;;
16800;SDS011;8518;53.236;10.384;2023-04-09T09:37:24;18.20;;;14.77;;
16800;SDS011;8518;53.236;10.384;2023-04-09T09:39:52;19.87;;;15.83;;
16800;SDS011;8518;53.236;10.384;2023-04-09T09:42:19;22.10;;;16.57;;
16800;SDS011;8518;53.236;10.384;2023-04-09T09:44:46;20.20;;;15.23;;
16800;SDS011;8518;53.236;10.384;2023-04-09T09:47:13;20.37;;;15.97;;
16800;SDS011;8518;53.236;10.384;2023-04-09T09:49:39;19.90;;;15.53;;
16800;SDS011;8518;53.236;10.384;2023-04-09T09:52:08;18.43;;;15.17;;
16800;SDS011;8518;53.236;10.384;2023-04-09T09:54:47;19.57;;;14.87;;
16800;SDS011;8518;53.236;10.384;2023-04-09T09:57:19;17.97;;;14.93;;
16800;SDS011;8518;53.236;10.384;2023-04-09T09:59:49;17.27;;;14.68;;
16800;SDS011;8518;53.236;10.384;2023-04-09T10:02:19;17.65;;;14.27;;
16800;SDS011;8518;53.236;10.384;2023-04-09T10:04:48;17.25;;;14.63;;
16800;SDS011;8518;53.236;10.384;2023-04-09T10:07:16;16.15;;;14.15;;
16800;SDS011;8518;53.236;10.384;2023-04-09T10:09:44;16.27;;;14.38;;
16800;SDS011;8518;53.236;10.384;2023-04-09T10:12:13;15.77;;;13.35;;
16800;SDS011;8518;53.236;10.384;2023-04-09T10:14:40;16.33;;;14.60;;
16800;SDS011;8518;53.236;10.384;2023-04-09T10:17:07;15.88;;;14.23;;
16800;SDS011;8518;53.236;10.384;2023-04-09T10:19:34;15.68;;;13.95;;
16800;SDS011;8518;53.236;10.384;2023-04-09T10:22:07;16.83;;;15.13;;
16800;SDS011;8518;53.236;10.384;2023-04-09T10:24:35;15.52;;;13.93;;
16800;SDS011;8518;53.236;10.384;2023-04-09T10:27:11;17.98;;;14.68;;
16800;SDS011;8518;53.236;10.384;2023-04-09T10:29:47;16.23;;;14.60;;
16800;SDS011;8518;53.236;10.384;2023-04-09T10:32:20;15.60;;;13.98;;
16800;SDS011;8518;53.236;10.384;2023-04-09T10:34:48;15.20;;;13.55;;
16800;SDS011;8518;53.236;10.384;2023-04-09T10:39:47;16.45;;;14.75;;
16800;SDS011;8518;53.236;10.384;2023-04-09T10:45:40;15.13;;;13.63;;
16800;SDS011;8518;53.236;10.384;2023-04-09T10:48:12;14.57;;;13.18;;
16800;SDS011;8518;53.236;10.384;2023-04-09T10:50:41;13.73;;;12.27;;
16800;SDS011;8518;53.236;10.384;2023-04-09T10:56:30;14.88;;;13.38;;
16800;SDS011;8518;53.236;10.384;2023-04-09T10:58:56;15.18;;;13.70;;
16800;SDS011;8518;53.236;10.384;2023-04-09T11:01:22;15.05;;;13.48;;
16800;SDS011;8518;53.236;10.384;2023-04-09T11:07:12;14.43;;;11.80;;
16800;SDS011;8518;53.236;10.384;2023-04-09T11:13:03;14.40;;;12.98;;
16800;SDS011;8518;53.236;10.384;2023-04-09T11:15:30;12.55;;;11.25;;
16800;SDS011;8518;53.236;10.384;2023-04-09T11:17:58;13.82;;;12.52;;
16800;SDS011;8518;53.236;10.384;2023-04-09T11:20:25;14.20;;;12.90;;
16800;SDS011;8518;53.236;10.384;2023-04-09T11:26:13;13.55;;;12.25;;
16800;SDS011;8518;53.236;10.384;2023-04-09T11:32:02;12.98;;;11.77;;
16800;SDS011;8518;53.236;10.384;2023-04-09T11:34:31;12.38;;;11.23;;
16800;SDS011;8518;53.236;10.384;2023-04-09T11:36:57;12.60;;;11.40;;
16800;SDS011;8518;53.236;10.384;2023-04-09T11:39:24;13.18;;;11.98;;
16800;SDS011;8518;53.236;10.384;2023-04-09T11:41:50;12.18;;;11.00;;
16800;SDS011;8518;53.236;10.384;2023-04-09T11:47:38;13.57;;;12.38;;
16800;SDS011;8518;53.236;10.384;2023-04-09T11:50:08;13.98;;;12.68;;
16800;SDS011;8518;53.236;10.384;2023-04-09T11:55:57;12.68;;;11.48;;
16800;SDS011;8518;53.236;10.384;2023-04-09T11:58:24;12.35;;;11.25;;
16800;SDS011;8518;53.236;10.384;2023-04-09T12:00:53;13.55;;;12.32;;
16800;SDS011;8518;53.236;10.384;2023-04-09T12:06:44;12.30;;;11.15;;
16800;SDS011;8518;53.236;10.384;2023-04-09T12:12:44;13.07;;;11.88;;
16800;SDS011;8518;53.236;10.384;2023-04-09T12:15:21;13.57;;;12.27;;
16800;SDS011;8518;53.236;10.384;2023-04-09T12:17:54;13.07;;;11.80;;
16800;SDS011;8518;53.236;10.384;2023-04-09T12:26:22;13.80;;;12.40;;
16800;SDS011;8518;53.236;10.384;2023-04-09T12:28:48;12.90;;;11.50;;
16800;SDS011;8518;53.236;10.384;2023-04-09T12:31:13;12.30;;;11.10;;
16800;SDS011;8518;53.236;10.384;2023-04-09T12:37:01;12.70;;;11.45;;
16800;SDS011;8518;53.236;10.384;2023-04-09T12:42:48;12.73;;;11.43;;
16800;SDS011;8518;53.236;10.384;2023-04-09T12:45:18;12.43;;;11.18;;
16800;SDS011;8518;53.236;10.384;2023-04-09T12:47:44;11.80;;;10.60;;
16800;SDS011;8518;53.236;10.384;2023-04-09T12:50:10;11.30;;;10.20;;
16800;SDS011;8518;53.236;10.384;2023-04-09T12:55:58;12.85;;;11.48;;
16800;SDS011;8518;53.236;10.384;2023-04-09T12:58:25;12.13;;;10.13;;
16800;SDS011;8518;53.236;10.384;2023-04-09T13:00:59;12.18;;;10.77;;
16800;SDS011;8518;53.236;10.384;2023-04-09T13:06:50;13.38;;;11.30;;
16800;SDS011;8518;53.236;10.384;2023-04-09T13:09:18;12.18;;;10.85;;
16800;SDS011;8518;53.236;10.384;2023-04-09T13:11:45;11.95;;;10.75;;
16800;SDS011;8518;53.236;10.384;2023-04-09T13:17:41;11.90;;;10.70;;
16800;SDS011;8518;53.236;10.384;2023-04-09T13:20:07;13.70;;;12.27;;
16800;SDS011;8518;53.236;10.384;2023-04-09T13:25:55;12.52;;;10.98;;
16800;SDS011;8518;53.236;10.384;2023-04-09T13:28:21;12.18;;;10.88;;
16800;SDS011;8518;53.236;10.384;2023-04-09T13:30:46;10.27;;;9.25;;
16800;SDS011;8518;53.236;10.384;2023-04-09T13:36:34;11.63;;;10.43;;
16800;SDS011;8518;53.236;10.384;2023-04-09T13:38:59;11.55;;;10.38;;
16800;SDS011;8518;53.236;10.384;2023-04-09T13:41:31;11.40;;;10.10;;
16800;SDS011;8518;53.236;10.384;2023-04-09T13:47:19;11.60;;;10.30;;
16800;SDS011;8518;53.236;10.384;2023-04-09T13:49:46;10.63;;;9.52;;
16800;SDS011;8518;53.236;10.384;2023-04-09T13:52:12;9.63;;;8.63;;
16800;SDS011;8518;53.236;10.384;2023-04-09T13:54:38;10.05;;;8.82;;
16800;SDS011;8518;53.236;10.384;2023-04-09T13:57:04;10.88;;;9.77;;
16800;SDS011;8518;53.236;10.384;2023-04-09T13:59:29;10.20;;;9.10;;
16800;SDS011;8518;53.236;10.384;2023-04-09T14:01:55;9.77;;;8.77;;
16800;SDS011;8518;53.236;10.384;2023-04-09T14:07:43;9.15;;;8.07;;
16800;SDS011;8518;53.236;10.384;2023-04-09T14:10:09;9.18;;;8.25;;
16800;SDS011;8518;53.236;10.384;2023-04-09T14:15:57;10.57;;;8.70;;
16800;SDS011;8518;53.236;10.384;2023-04-09T14:18:23;12.77;;;9.10;;
16800;SDS011;8518;53.236;10.384;2023-04-09T14:20:49;9.48;;;8.48;;
16800;SDS011;8518;53.236;10.384;2023-04-09T14:26:37;10.10;;;9.10;;
16800;SDS011;8518;53.236;10.384;2023-04-09T14:29:02;10.25;;;9.18;;
16800;SDS011;8518;53.236;10.384;2023-04-09T14:31:28;10.15;;;9.10;;
16800;SDS011;8518;53.236;10.384;2023-04-09T14:37:16;9.27;;;8.10;;
16800;SDS011;8518;53.236;10.384;2023-04-09T14:39:42;9.77;;;7.97;;
16800;SDS011;8518;53.236;10.384;2023-04-09T14:42:07;8.48;;;7.57;;
16800;SDS011;8518;53.236;10.384;2023-04-09T14:44:33;9.97;;;8.23;;
16800;SDS011;8518;53.236;10.384;2023-04-09T14:46:58;9.30;;;8.30;;
16800;SDS011;8518;53.236;10.384;2023-04-09T14:49:24;9.60;;;8.63;;
16800;SDS011;8518;53.236;10.384;2023-04-09T14:51:50;10.53;;;9.30;;
16800;SDS011;8518;53.236;10.384;2023-04-09T14:57:38;9.10;;;8.13;;
16800;SDS011;8518;53.236;10.384;2023-04-09T15:00:06;9.43;;;8.43;;
16800;SDS011;8518;53.236;10.384;2023-04-09T15:05:58;9.03;;;8.13;;
16800;SDS011;8518;53.236;10.384;2023-04-09T15:11:46;11.47;;;8.90;;
16800;SDS011;8518;53.236;10.384;2023-04-09T15:17:34;11.47;;;10.00;;
16800;SDS011;8518;53.236;10.384;2023-04-09T15:20:00;11.47;;;9.90;;
16800;SDS011;8518;53.236;10.384;2023-04-09T15:22:26;11.20;;;10.10;;
16800;SDS011;8518;53.236;10.384;2023-04-09T15:24:51;10.07;;;9.07;;
16800;SDS011;8518;53.236;10.384;2023-04-09T15:27:17;11.60;;;9.50;;
16800;SDS011;8518;53.236;10.384;2023-04-09T15:29:43;10.43;;;9.40;;
16800;SDS011;8518;53.236;10.384;2023-04-09T15:32:09;11.53;;;10.23;;
16800;SDS011;8518;53.236;10.384;2023-04-09T15:34:35;9.93;;;8.80;;
16800;SDS011;8518;53.236;10.384;2023-04-09T15:37:00;11.17;;;9.80;;
16800;SDS011;8518;53.236;10.384;2023-04-09T15:39:26;11.87;;;10.43;;
16800;SDS011;8518;53.236;10.384;2023-04-09T15:41:53;12.07;;;10.87;;
16800;SDS011;8518;53.236;10.384;2023-04-09T15:47:43;11.53;;;10.07;;
16800;SDS011;8518;53.236;10.384;2023-04-09T15:53:32;11.37;;;10.13;;
16800;SDS011;8518;53.236;10.384;2023-04-09T15:55:57;11.77;;;10.30;;
16800;SDS011;8518;53.236;10.384;2023-04-09T15:58:24;11.57;;;10.33;;
16800;SDS011;8518;53.236;10.384;2023-04-09T16:00:49;10.80;;;9.73;;
16800;SDS011;8518;53.236;10.384;2023-04-09T16:06:38;11.37;;;9.97;;
16800;SDS011;8518;53.236;10.384;2023-04-09T16:09:03;11.57;;;10.13;;
16800;SDS011;8518;53.236;10.384;2023-04-09T16:11:29;10.43;;;9.33;;
16800;SDS011;8518;53.236;10.384;2023-04-09T16:17:16;11.33;;;10.13;;
16800;SDS011;8518;53.236;10.384;2023-04-09T16:23:04;11.50;;;10.30;;
16800;SDS011;8518;53.236;10.384;2023-04-09T16:25:30;12.23;;;10.70;;
16800;SDS011;8518;53.236;10.384;2023-04-09T16:27:55;13.07;;;11.13;;
16800;SDS011;8518;53.236;10.384;2023-04-09T16:30:21;11.77;;;10.57;;
16800;SDS011;8518;53.236;10.384;2023-04-09T16:36:08;12.23;;;10.83;;
16800;SDS011;8518;53.236;10.384;2023-04-09T16:38:34;13.07;;;10.37;;
16800;SDS011;8518;53.236;10.384;2023-04-09T16:41:00;13.30;;;11.17;;
16800;SDS011;8518;53.236;10.384;2023-04-09T16:46:50;14.60;;;12.23;;
16800;SDS011;8518;53.236;10.384;2023-04-09T16:49:16;13.10;;;11.70;;
16800;SDS011;8518;53.236;10.384;2023-04-09T16:51:41;14.37;;;11.93;;
16800;SDS011;8518;53.236;10.384;2023-04-09T16:57:32;15.27;;;12.53;;
16800;SDS011;8518;53.236;10.384;2023-04-09T16:59:58;13.60;;;12.07;;
16800;SDS011;8518;53.236;10.384;2023-04-09T17:02:23;14.13;;;12.13;;
16800;SDS011;8518;53.236;10.384;2023-04-09T17:04:51;15.33;;;12.17;;
16800;SDS011;8518;53.236;10.384;2023-04-09T17:07:17;15.30;;;12.60;;
16800;SDS011;8518;53.236;10.384;2023-04-09T17:09:42;12.50;;;11.20;;
16800;SDS011;8518;53.236;10.384;2023-04-09T17:12:08;16.20;;;13.63;;
16800;SDS011;8518;53.236;10.384;2023-04-09T17:14:34;14.03;;;12.27;;
16800;SDS011;8518;53.236;10.384;2023-04-09T17:17:01;15.53;;;13.10;;
16800;SDS011;8518;53.236;10.384;2023-04-09T17:19:27;14.87;;;12.67;;
16800;SDS011;8518;53.236;10.384;2023-04-09T17:21:53;14.47;;;12.53;;
16800;SDS011;8518;53.236;10.384;2023-04-09T17:27:41;15.30;;;12.53;;
16800;SDS011;8518;53.236;10.384;2023-04-09T17:33:31;15.37;;;12.83;;
16800;SDS011;8518;53.236;10.384;2023-04-09T17:35:56;15.40;;;13.63;;
16800;SDS011;8518;53.236;10.384;2023-04-09T17:38:22;16.30;;;14.03;;
16800;SDS011;8518;53.236;10.384;2023-04-09T17:40:51;15.13;;;13.20;;
16800;SDS011;8518;53.236;10.384;2023-04-09T17:46:39;16.07;;;13.37;;
16800;SDS011;8518;53.236;10.384;2023-04-09T17:49:05;17.47;;;13.70;;
16800;SDS011;8518;53.236;10.384;2023-04-09T17:51:30;18.17;;;14.20;;
16800;SDS011;8518;53.236;10.384;2023-04-09T17:57:18;16.57;;;13.87;;
16800;SDS011;8518;53.236;10.384;2023-04-09T17:59:44;15.90;;;14.20;;
16800;SDS011;8518;53.236;10.384;2023-04-09T18:02:10;16.70;;;14.63;;
16800;SDS011;8518;53.236;10.384;2023-04-09T18:04:36;15.60;;;13.80;;
16800;SDS011;8518;53.236;10.384;2023-04-09T18:07:02;17.03;;;14.20;;
16800;SDS011;8518;53.236;10.384;2023-04-09T18:09:28;17.53;;;15.00;;
16800;SDS011;8518;53.236;10.384;2023-04-09T18:11:53;17.20;;;14.03;;
16800;SDS011;8518;53.236;10.384;2023-04-09T18:17:44;17.40;;;15.47;;
16800;SDS011;8518;53.236;10.384;2023-04-09T18:20:10;19.90;;;16.33;;
16800;SDS011;8518;53.236;10.384;2023-04-09T18:25:58;19.73;;;15.87;;
16800;SDS011;8518;53.236;10.384;2023-04-09T18:31:46;17.93;;;14.70;;
16800;SDS011;8518;53.236;10.384;2023-04-09T18:37:34;18.83;;;15.90;;
16800;SDS011;8518;53.236;10.384;2023-04-09T18:39:59;22.83;;;18.63;;
16800;SDS011;8518;53.236;10.384;2023-04-09T18:42:25;18.33;;;16.13;;
16800;SDS011;8518;53.236;10.384;2023-04-09T18:44:51;19.13;;;15.83;;
16800;SDS011;8518;53.236;10.384;2023-04-09T18:47:17;19.27;;;16.10;;
16800;SDS011;8518;53.236;10.384;2023-04-09T18:49:42;18.87;;;15.90;;
16800;SDS011;8518;53.236;10.384;2023-04-09T18:52:08;19.83;;;15.10;;
16800;SDS011;8518;53.236;10.384;2023-04-09T18:54:34;17.40;;;15.23;;
16800;SDS011;8518;53.236;10.384;2023-04-09T18:57:01;17.73;;;14.70;;
16800;SDS011;8518;53.236;10.384;2023-04-09T18:59:28;17.83;;;15.27;;
16800;SDS011;8518;53.236;10.384;2023-04-09T19:01:55;18.83;;;15.73;;
16800;SDS011;8518;53.236;10.384;2023-04-09T19:07:44;21.13;;;17.57;;
16800;SDS011;8518;53.236;10.384;2023-04-09T19:10:10;23.67;;;19.53;;
16800;SDS011;8518;53.236;10.384;2023-04-09T19:16:00;18.83;;;15.80;;
16800;SDS011;8518;53.236;10.384;2023-04-09T19:18:26;24.17;;;16.33;;